Time;durP1;ratioP1;P1;durP2;ratioP2;P2;SDS_P1;SDS_P2;PMS_P1;PMS_P2;Temp;Humidity;BMP_temperature;BMP_pressure;BME280_temperature;BME280_humidity;BME280_pressure;Samples;Min_cycle;Max_cycle;Signal;HPM_P1;HPM_P2
2023/07/04 00:00:55;;;;;;;4.40;1.60;;;15.50;99.90;;;;;;5020738;28;20504;-71
2023/07/04 00:03:21;;;;;;;3.40;1.60;;;15.60;99.90;;;;;;5012181;28;20424;-71
2023/07/04 00:05:48;;;;;;;2.17;1.30;;;15.40;99.90;;;;;;5025973;28;21085;-71
2023/07/04 00:08:13;;;;;;;5.43;1.60;;;15.40;99.90;;;;;;5020581;28;20182;-71
2023/07/04 00:10:39;;;;;;;5.93;1.70;;;15.30;99.90;;;;;;5027448;28;20475;-72
2023/07/04 00:13:05;;;;;;;4.30;1.83;;;16.00;99.90;;;;;;5030521;28;20734;-73
2023/07/04 00:15:30;;;;;;;4.80;1.93;;;15.30;99.90;;;;;;5026232;28;20254;-72
2023/07/04 00:17:56;;;;;;;3.77;1.80;;;15.40;99.90;;;;;;5013928;28;20183;-71
2023/07/04 00:20:21;;;;;;;3.73;1.50;;;15.30;99.90;;;;;;5027013;28;20178;-71
2023/07/04 00:22:47;;;;;;;5.87;1.70;;;15.30;99.90;;;;;;5032799;28;20248;-72
2023/07/04 00:25:12;;;;;;;8.27;2.20;;;15.30;99.90;;;;;;5033507;28;20206;-72
2023/07/04 00:27:39;;;;;;;3.73;1.57;;;15.30;99.90;;;;;;5033116;28;20248;-72
2023/07/04 00:30:06;;;;;;;4.70;1.90;;;15.30;99.90;;;;;;5027932;28;20538;-72
2023/07/04 00:32:31;;;;;;;3.23;1.57;;;15.30;99.90;;;;;;5016260;28;20465;-72
2023/07/04 00:34:57;;;;;;;3.27;1.73;;;15.30;99.90;;;;;;5026437;28;20463;-72
2023/07/04 00:37:22;;;;;;;2.47;1.70;;;15.30;99.90;;;;;;5024607;28;20178;-72
2023/07/04 00:39:50;;;;;;;3.50;1.70;;;15.30;99.90;;;;;;5032943;28;20179;-72
2023/07/04 00:42:15;;;;;;;5.67;1.67;;;15.40;99.90;;;;;;5032385;28;20214;-72
2023/07/04 00:44:47;;;;;;;10.07;3.27;;;15.50;99.90;;;;;;5028017;28;20456;-72
2023/07/04 00:47:21;;;;;;;2.87;1.60;;;15.40;99.90;;;;;;5032742;28;20190;-72
2023/07/04 00:49:57;;;;;;;12.67;1.83;;;15.50;99.90;;;;;;5032700;28;20435;-72
2023/07/04 00:52:33;;;;;;;17.00;2.23;;;15.50;99.90;;;;;;5031641;28;20468;-72
2023/07/04 00:55:01;;;;;;;3.27;1.67;;;15.60;99.90;;;;;;5032896;28;20486;-72
2023/07/04 00:57:31;;;;;;;3.13;1.60;;;15.60;99.90;;;;;;5032424;28;21107;-71
2023/07/04 00:59:58;;;;;;;2.53;1.30;;;15.70;99.90;;;;;;5015718;28;20635;-71
2023/07/04 01:02:29;;;;;;;8.10;2.07;;;15.70;99.90;;;;;;5013649;28;20441;-71
2023/07/04 01:04:55;;;;;;;4.03;1.47;;;15.70;99.90;;;;;;5018625;28;20431;-71
2023/07/04 01:07:32;;;;;;;7.80;1.90;;;15.80;99.90;;;;;;5014648;28;20426;-71
2023/07/04 01:10:16;;;;;;;3.90;2.00;;;15.80;99.90;;;;;;5015582;28;20444;-71
2023/07/04 01:12:42;;;;;;;5.17;2.10;;;15.70;99.90;;;;;;5017075;28;20500;-71
2023/07/04 01:15:09;;;;;;;3.77;1.97;;;15.70;99.90;;;;;;5013832;28;20449;-72
2023/07/04 01:17:35;;;;;;;4.33;1.80;;;15.70;99.90;;;;;;5019194;28;20421;-72
2023/07/04 01:20:02;;;;;;;3.60;2.10;;;15.90;99.90;;;;;;5023757;28;20448;-72
2023/07/04 01:23:12;;;;;;;4.33;2.13;;;15.90;99.90;;;;;;5031089;28;20969;-72
2023/07/04 01:25:52;;;;;;;3.30;1.13;;;15.90;99.90;;;;;;5025773;28;20860;-72
2023/07/04 01:28:20;;;;;;;7.50;2.43;;;15.90;99.90;;;;;;5031827;28;20777;-72
2023/07/04 01:30:46;;;;;;;1.90;1.33;;;15.80;99.90;;;;;;5001829;28;20505;-72
2023/07/04 01:33:13;;;;;;;3.53;1.50;;;15.80;99.90;;;;;;5016335;28;20461;-72
2023/07/04 01:35:39;;;;;;;3.20;1.50;;;15.80;99.90;;;;;;5031297;28;20429;-72
2023/07/04 01:38:06;;;;;;;4.80;1.53;;;15.80;99.90;;;;;;5025134;28;20432;-72
2023/07/04 01:40:34;;;;;;;2.57;1.17;;;15.80;99.90;;;;;;5031943;28;20409;-71
2023/07/04 01:43:01;;;;;;;3.07;1.30;;;15.80;99.90;;;;;;5028755;28;20425;-72
2023/07/04 01:45:26;;;;;;;2.33;1.20;;;15.80;99.90;;;;;;5022067;28;20430;-72
2023/07/04 01:47:53;;;;;;;4.03;2.10;;;15.80;99.90;;;;;;5006217;28;20429;-72
2023/07/04 01:50:19;;;;;;;3.20;1.50;;;15.80;99.90;;;;;;5019181;28;20179;-72
2023/07/04 01:52:45;;;;;;;4.33;1.60;;;15.80;99.90;;;;;;5011696;28;20552;-71
2023/07/04 01:55:13;;;;;;;2.10;1.03;;;15.70;99.90;;;;;;5031458;28;20417;-71
2023/07/04 01:57:39;;;;;;;2.47;1.50;;;15.70;99.90;;;;;;5031460;28;20424;-71
2023/07/04 02:00:08;;;;;;;2.60;1.20;;;15.70;99.90;;;;;;5031330;28;20427;-71
2023/07/04 02:02:38;;;;;;;4.90;1.40;;;15.70;99.90;;;;;;5029990;28;20467;-71
2023/07/04 02:05:04;;;;;;;4.57;1.63;;;15.70;99.90;;;;;;5011761;28;20426;-71
2023/07/04 02:07:30;;;;;;;2.10;1.30;;;15.80;99.90;;;;;;5012955;28;20426;-71
2023/07/04 02:09:55;;;;;;;3.00;1.30;;;15.70;99.90;;;;;;5030751;28;20500;-71
2023/07/04 02:12:21;;;;;;;4.47;1.40;;;15.70;99.90;;;;;;5030598;28;20233;-72
2023/07/04 02:14:46;;;;;;;2.80;1.30;;;15.60;99.90;;;;;;5022222;28;20908;-72
2023/07/04 02:17:12;;;;;;;1.50;0.80;;;15.60;99.90;;;;;;5029459;28;20186;-72
2023/07/04 02:19:37;;;;;;;3.60;1.83;;;15.60;99.90;;;;;;5019603;28;20186;-72
2023/07/04 02:22:03;;;;;;;3.60;1.50;;;15.60;99.90;;;;;;5030016;28;20189;-72
2023/07/04 02:24:29;;;;;;;2.90;1.00;;;15.50;99.90;;;;;;5030910;28;20206;-72
2023/07/04 02:26:55;;;;;;;4.03;1.80;;;15.60;99.90;;;;;;5030747;28;20188;-72
2023/07/04 02:29:20;;;;;;;3.10;1.50;;;15.50;99.90;;;;;;5030453;28;20190;-72
2023/07/04 02:31:46;;;;;;;4.20;2.07;;;15.50;99.90;;;;;;5013295;28;20245;-72
2023/07/04 02:34:12;;;;;;;2.73;1.10;;;15.40;99.90;;;;;;5022404;28;20185;-71
2023/07/04 02:36:37;;;;;;;4.10;1.97;;;15.30;99.90;;;;;;5016854;28;20640;-72
2023/07/04 02:39:03;;;;;;;2.93;1.50;;;15.30;99.90;;;;;;5030882;28;20229;-72
2023/07/04 02:41:29;;;;;;;3.37;1.60;;;15.20;99.90;;;;;;5030143;28;20212;-72
2023/07/04 02:43:57;;;;;;;2.30;1.07;;;15.20;99.90;;;;;;5027711;28;20282;-72
2023/07/04 02:46:23;;;;;;;2.50;1.30;;;15.20;99.90;;;;;;5030456;28;20425;-72
2023/07/04 02:48:48;;;;;;;3.00;1.10;;;15.20;99.90;;;;;;5030936;28;20429;-72
2023/07/04 02:51:14;;;;;;;3.20;1.30;;;15.10;99.90;;;;;;5029444;28;20627;-72
2023/07/04 02:53:39;;;;;;;3.77;1.50;;;15.00;99.90;;;;;;5030842;28;20185;-72
2023/07/04 02:56:05;;;;;;;2.20;1.30;;;15.00;99.90;;;;;;5030546;28;20591;-72
2023/07/04 02:58:31;;;;;;;5.93;1.20;;;15.00;99.90;;;;;;5030413;28;20186;-71
2023/07/04 03:00:57;;;;;;;4.50;1.30;;;14.90;99.90;;;;;;5029846;28;20217;-71
2023/07/04 03:03:23;;;;;;;2.57;1.67;;;15.00;99.90;;;;;;5022750;28;20195;-71
2023/07/04 03:05:48;;;;;;;2.00;1.20;;;15.00;99.90;;;;;;5022753;28;20421;-71
2023/07/04 03:08:14;;;;;;;10.63;1.57;;;15.00;99.90;;;;;;5020237;28;20178;-71
2023/07/04 03:10:40;;;;;;;2.80;1.30;;;15.10;99.90;;;;;;5029047;28;20276;-71
2023/07/04 03:13:06;;;;;;;2.20;0.87;;;15.10;99.90;;;;;;5031750;28;20822;-71
2023/07/04 03:15:31;;;;;;;2.13;1.37;;;15.10;99.90;;;;;;5028707;28;20182;-71
2023/07/04 03:17:57;;;;;;;4.37;1.57;;;15.20;99.90;;;;;;5026983;28;20223;-71
2023/07/04 03:20:22;;;;;;;3.53;0.90;;;15.10;99.90;;;;;;5027598;28;20190;-71
2023/07/04 03:22:48;;;;;;;1.80;0.97;;;15.20;99.90;;;;;;5033632;28;20183;-71
2023/07/04 03:25:15;;;;;;;2.67;1.30;;;15.30;99.90;;;;;;5021241;28;20190;-71
2023/07/04 03:27:41;;;;;;;5.90;1.13;;;15.30;99.90;;;;;;5034157;28;20310;-72
2023/07/04 03:30:09;;;;;;;4.60;1.30;;;15.40;99.90;;;;;;5028847;28;20923;-71
2023/07/04 03:32:35;;;;;;;2.07;0.97;;;15.30;99.90;;;;;;5010249;28;20742;-71
2023/07/04 03:35:01;;;;;;;3.50;1.17;;;15.30;99.90;;;;;;5028760;28;20433;-72
2023/07/04 03:37:34;;;;;;;2.50;1.37;;;15.40;99.90;;;;;;5026221;28;20560;-71
2023/07/04 03:40:06;;;;;;;3.23;0.90;;;15.40;99.90;;;;;;5034363;28;20884;-72
2023/07/04 03:42:31;;;;;;;3.20;1.20;;;15.40;99.90;;;;;;5033707;28;20499;-71
2023/07/04 03:44:57;;;;;;;2.33;1.17;;;15.40;99.90;;;;;;5030686;28;20519;-71
2023/07/04 03:47:22;;;;;;;2.40;1.30;;;15.30;99.90;;;;;;5034055;28;20257;-72
2023/07/04 03:49:48;;;;;;;2.37;1.03;;;15.40;99.90;;;;;;5034582;28;20194;-71
2023/07/04 03:52:15;;;;;;;2.97;1.50;;;15.30;99.90;;;;;;5033440;28;20553;-72
2023/07/04 03:54:40;;;;;;;2.23;1.30;;;15.30;99.90;;;;;;5033746;28;20232;-72
2023/07/04 03:57:07;;;;;;;1.80;1.10;;;15.40;99.90;;;;;;5033741;28;20429;-72
2023/07/04 03:59:32;;;;;;;2.80;1.60;;;15.30;99.90;;;;;;5019831;28;20183;-72
2023/07/04 04:01:58;;;;;;;3.40;1.37;;;15.50;99.90;;;;;;5033438;28;20482;-72
2023/07/04 04:04:24;;;;;;;2.10;1.00;;;15.50;99.90;;;;;;5033332;28;20183;-72
2023/07/04 04:06:51;;;;;;;3.30;1.50;;;15.50;99.90;;;;;;5023122;28;20261;-72
2023/07/04 04:09:16;;;;;;;3.70;1.10;;;15.40;99.90;;;;;;5024183;28;20708;-72
2023/07/04 04:11:42;;;;;;;2.40;1.27;;;15.50;99.90;;;;;;5033168;28;20468;-72
2023/07/04 04:14:09;;;;;;;1.93;1.00;;;15.60;99.90;;;;;;5024927;28;20245;-72
2023/07/04 04:16:35;;;;;;;4.10;1.50;;;15.50;99.90;;;;;;5033737;28;20269;-71
2023/07/04 04:19:01;;;;;;;6.63;1.33;;;15.70;99.90;;;;;;5020917;28;20524;-72
2023/07/04 04:21:27;;;;;;;4.03;1.73;;;15.70;99.90;;;;;;5031406;28;20581;-72
2023/07/04 04:23:52;;;;;;;2.60;1.57;;;15.70;99.90;;;;;;5033356;28;20460;-72
2023/07/04 04:26:20;;;;;;;4.77;1.10;;;15.70;99.90;;;;;;5033333;28;20178;-72
2023/07/04 04:28:46;;;;;;;3.20;1.20;;;15.70;99.90;;;;;;5033096;28;20571;-72
2023/07/04 04:31:12;;;;;;;4.13;1.70;;;15.80;99.90;;;;;;5018348;28;20473;-72
2023/07/04 04:33:37;;;;;;;2.60;1.27;;;15.80;99.90;;;;;;5021782;28;20414;-72
2023/07/04 04:36:04;;;;;;;4.20;1.03;;;15.80;99.90;;;;;;5028492;28;20513;-72
2023/07/04 04:38:30;;;;;;;11.13;1.73;;;15.80;99.90;;;;;;5030008;28;20187;-72
2023/07/04 04:41:03;;;;;;;1.90;1.10;;;15.90;99.90;;;;;;5032590;28;20422;-72
2023/07/04 04:43:29;;;;;;;2.93;1.60;;;15.90;99.90;;;;;;5026053;28;20197;-72
2023/07/04 04:45:57;;;;;;;2.40;1.47;;;16.00;99.90;;;;;;5024360;28;20500;-71
2023/07/04 04:48:29;;;;;;;2.10;1.20;;;15.90;99.90;;;;;;5027846;28;20720;-71
2023/07/04 04:50:56;;;;;;;6.00;1.27;;;16.00;99.90;;;;;;5025271;28;20429;-72
2023/07/04 04:53:24;;;;;;;6.33;1.37;;;16.00;99.90;;;;;;5031908;28;20499;-71
2023/07/04 04:55:51;;;;;;;4.40;1.77;;;16.00;99.90;;;;;;5032738;28;21023;-72
2023/07/04 04:58:16;;;;;;;3.23;2.00;;;16.00;99.90;;;;;;5032626;28;20428;-72
2023/07/04 05:00:44;;;;;;;6.03;1.30;;;16.10;99.90;;;;;;5031918;28;20783;-72
2023/07/04 05:03:10;;;;;;;3.60;1.77;;;16.20;99.90;;;;;;5026887;28;20422;-72
2023/07/04 05:05:36;;;;;;;3.07;1.73;;;16.30;99.90;;;;;;5025366;28;20719;-72
2023/07/04 05:08:02;;;;;;;2.00;1.07;;;16.40;99.90;;;;;;5018807;28;20502;-72
2023/07/04 05:10:27;;;;;;;2.70;1.10;;;16.40;99.90;;;;;;5026339;28;20191;-72
2023/07/04 05:12:53;;;;;;;3.33;1.77;;;16.30;99.90;;;;;;5031260;28;20777;-72
2023/07/04 05:15:19;;;;;;;4.03;1.23;;;16.40;99.90;;;;;;5031882;28;20185;-72
2023/07/04 05:17:44;;;;;;;5.50;1.73;;;16.50;99.90;;;;;;5001156;28;20175;-72
2023/07/04 05:20:14;;;;;;;2.20;1.00;;;16.50;99.90;;;;;;5025052;28;20277;-72
2023/07/04 05:22:40;;;;;;;2.73;1.17;;;16.60;99.90;;;;;;5031100;28;20183;-72
2023/07/04 05:25:06;;;;;;;2.27;1.20;;;16.50;99.90;;;;;;5032016;28;20425;-72
2023/07/04 05:27:32;;;;;;;2.57;1.33;;;16.60;99.90;;;;;;5031895;28;20460;-72
2023/07/04 05:29:57;;;;;;;1.93;1.03;;;16.60;99.90;;;;;;5026984;28;20520;-72
2023/07/04 05:32:23;;;;;;;4.33;1.70;;;16.60;99.90;;;;;;5011633;28;20199;-72
2023/07/04 05:34:49;;;;;;;2.70;1.30;;;16.70;99.90;;;;;;5025353;28;20183;-72
2023/07/04 05:37:15;;;;;;;5.00;1.60;;;16.80;99.90;;;;;;5024627;28;20179;-72
2023/07/04 05:39:41;;;;;;;5.73;1.50;;;16.70;99.90;;;;;;5032068;28;20182;-71
2023/07/04 05:42:06;;;;;;;3.30;0.90;;;16.80;99.90;;;;;;5031605;28;20440;-71
2023/07/04 05:44:32;;;;;;;7.57;2.07;;;16.80;99.90;;;;;;5029072;28;20174;-71
2023/07/04 05:46:58;;;;;;;2.70;1.33;;;16.80;99.90;;;;;;5018551;28;20182;-71
2023/07/04 05:49:23;;;;;;;5.90;1.70;;;16.90;99.90;;;;;;5031575;28;20580;-71
2023/07/04 05:51:49;;;;;;;2.50;1.00;;;16.90;99.90;;;;;;5031008;28;20220;-71
2023/07/04 05:54:14;;;;;;;2.73;1.10;;;16.90;99.90;;;;;;5031953;28;20187;-71
2023/07/04 05:56:40;;;;;;;3.30;1.17;;;16.90;99.90;;;;;;5031371;28;20628;-71
2023/07/04 05:59:07;;;;;;;3.77;1.70;;;17.00;99.90;;;;;;5030788;28;20612;-71
2023/07/04 06:01:42;;;;;;;2.70;1.20;;;17.00;99.90;;;;;;5029903;28;20285;-72
2023/07/04 06:04:10;;;;;;;3.40;1.33;;;17.00;99.90;;;;;;5018317;28;20418;-72
2023/07/04 06:06:45;;;;;;;2.97;1.60;;;17.00;99.90;;;;;;5022734;28;20525;-72
2023/07/04 06:09:15;;;;;;;2.67;1.33;;;17.00;99.90;;;;;;5021297;28;20556;-72
2023/07/04 06:11:46;;;;;;;3.20;1.37;;;17.10;99.90;;;;;;5030568;28;20463;-71
2023/07/04 06:14:21;;;;;;;2.70;1.07;;;17.20;99.90;;;;;;5031067;28;20417;-72
2023/07/04 06:16:46;;;;;;;2.07;1.27;;;17.50;99.90;;;;;;5030874;28;20452;-72
2023/07/04 06:19:12;;;;;;;3.87;1.70;;;17.70;99.90;;;;;;5018905;28;20522;-72
2023/07/04 06:21:37;;;;;;;4.87;1.50;;;17.70;99.90;;;;;;5030458;28;20193;-72
2023/07/04 06:24:03;;;;;;;2.00;1.03;;;17.90;99.90;;;;;;5031154;28;20194;-71
2023/07/04 06:26:32;;;;;;;3.70;1.27;;;18.00;99.90;;;;;;5030488;28;20603;-71
2023/07/04 06:28:57;;;;;;;1.90;1.13;;;18.10;99.90;;;;;;5026183;28;20202;-71
2023/07/04 06:31:25;;;;;;;3.93;1.60;;;18.20;99.90;;;;;;5010427;28;20950;-72
2023/07/04 06:33:50;;;;;;;3.93;1.40;;;18.40;99.90;;;;;;5020256;28;20269;-72
2023/07/04 06:36:17;;;;;;;2.27;1.10;;;18.30;99.90;;;;;;5024937;28;20422;-72
2023/07/04 06:38:43;;;;;;;2.20;1.00;;;18.20;99.90;;;;;;5029222;28;20228;-72
2023/07/04 06:41:14;;;;;;;4.70;1.60;;;18.10;99.90;;;;;;5029620;28;20743;-72
2023/07/04 06:43:44;;;;;;;3.17;1.07;;;18.10;99.90;;;;;;5027120;28;20417;-72
2023/07/04 06:46:18;;;;;;;5.80;1.40;;;18.10;99.90;;;;;;5014313;28;20419;-71
2023/07/04 06:48:51;;;;;;;4.50;1.70;;;18.10;99.90;;;;;;5008643;28;20430;-71
2023/07/04 06:51:18;;;;;;;7.03;1.30;;;18.10;99.90;;;;;;5014894;28;20473;-71
2023/07/04 06:53:45;;;;;;;2.80;1.53;;;18.20;99.90;;;;;;5019172;28;20504;-71
2023/07/04 06:56:22;;;;;;;8.57;1.30;;;18.30;99.90;;;;;;5030673;28;20427;-71
2023/07/04 06:58:52;;;;;;;2.90;1.40;;;18.50;99.90;;;;;;5030491;28;21105;-71
2023/07/04 07:01:19;;;;;;;3.20;1.33;;;18.50;99.90;;;;;;5029676;28;20421;-71
2023/07/04 07:03:45;;;;;;;4.80;1.67;;;18.60;99.90;;;;;;5030353;28;20425;-71
2023/07/04 07:06:11;;;;;;;5.50;1.60;;;18.70;99.90;;;;;;5025137;28;20495;-72
2023/07/04 07:08:38;;;;;;;4.30;1.67;;;18.90;99.90;;;;;;5008530;28;20179;-72
2023/07/04 07:11:06;;;;;;;4.27;1.20;;;19.00;99.90;;;;;;5016816;28;20436;-71
2023/07/04 07:13:32;;;;;;;2.60;1.07;;;19.10;99.90;;;;;;5023342;28;20406;-69
2023/07/04 07:16:22;;;;;;;3.90;1.40;;;19.10;99.90;;;;;;5015666;28;20480;-69
2023/07/04 07:18:49;;;;;;;2.23;1.10;;;19.10;99.90;;;;;;5008440;28;20414;-69
2023/07/04 07:21:19;;;;;;;2.92;1.58;;;19.20;99.90;;;;;;5020974;28;20410;-70
2023/07/04 07:23:45;;;;;;;3.60;1.53;;;19.20;99.90;;;;;;5030552;28;20198;-71
2023/07/04 07:26:14;;;;;;;6.70;1.43;;;19.40;99.90;;;;;;5019398;28;20417;-70
2023/07/04 07:28:40;;;;;;;6.37;1.73;;;19.50;99.90;;;;;;5029372;28;20437;-70
2023/07/04 07:31:20;;;;;;;5.70;1.37;;;19.30;99.90;;;;;;5010581;28;20914;-70
2023/07/04 07:33:48;;;;;;;2.67;1.60;;;19.40;99.90;;;;;;5019856;28;20422;-71
2023/07/04 07:36:32;;;;;;;2.20;1.10;;;19.30;99.90;;;;;;5011962;28;20406;-70
2023/07/04 07:38:59;;;;;;;7.27;1.93;;;19.20;99.90;;;;;;5011334;28;20734;-70
2023/07/04 07:41:31;;;;;;;2.13;1.30;;;19.20;99.90;;;;;;5024478;28;20425;-70
2023/07/04 07:43:56;;;;;;;2.13;1.20;;;19.20;99.90;;;;;;5005875;28;20421;-69
2023/07/04 07:46:22;;;;;;;3.73;1.43;;;19.20;99.90;;;;;;5030727;28;20421;-69
2023/07/04 07:48:49;;;;;;;2.60;1.50;;;19.30;99.90;;;;;;5030035;28;20247;-69
2023/07/04 07:51:16;;;;;;;3.40;1.40;;;19.50;99.90;;;;;;5012668;28;20442;-69
2023/07/04 07:53:43;;;;;;;3.20;1.47;;;19.70;99.90;;;;;;5008257;28;20438;-69
2023/07/04 07:56:11;;;;;;;3.70;1.33;;;19.70;99.90;;;;;;5017256;28;20485;-68
2023/07/04 07:58:36;;;;;;;2.60;1.60;;;20.00;99.90;;;;;;5014065;28;20822;-68
2023/07/04 08:01:20;;;;;;;9.73;1.50;;;19.90;99.90;;;;;;5025803;28;20421;-68
2023/07/04 08:03:46;;;;;;;2.23;1.30;;;20.00;99.90;;;;;;5031471;28;20232;-68
2023/07/04 08:06:27;;;;;;;1.80;1.07;;;20.10;99.90;;;;;;5026739;28;20462;-68
2023/07/04 08:08:55;;;;;;;2.70;1.40;;;20.20;99.90;;;;;;5020190;28;20758;-68
2023/07/04 08:11:21;;;;;;;3.23;1.33;;;20.30;99.90;;;;;;4999844;28;20988;-68
2023/07/04 08:13:47;;;;;;;5.07;1.50;;;20.40;99.90;;;;;;5012845;28;20464;-68
2023/07/04 08:16:18;;;;;;;3.77;1.70;;;20.50;99.90;;;;;;5020624;28;20413;-68
2023/07/04 08:18:44;;;;;;;4.63;1.93;;;20.60;99.90;;;;;;5014120;28;20203;-69
2023/07/04 08:21:09;;;;;;;3.60;1.37;;;20.80;99.90;;;;;;5031305;28;20946;-68
2023/07/04 08:23:35;;;;;;;2.73;1.10;;;21.00;99.90;;;;;;5031477;28;20954;-68
2023/07/04 08:26:01;;;;;;;15.17;2.03;;;21.00;99.90;;;;;;5031635;28;20174;-68
2023/07/04 08:28:26;;;;;;;12.37;1.70;;;21.20;99.70;;;;;;5031160;28;20198;-69
2023/07/04 08:30:52;;;;;;;4.43;1.60;;;21.30;98.90;;;;;;5019543;28;20603;-68
2023/07/04 08:33:18;;;;;;;2.07;1.07;;;21.30;98.20;;;;;;5015878;28;20253;-68
2023/07/04 08:35:55;;;;;;;3.83;1.20;;;21.30;97.40;;;;;;5018272;28;20982;-68
2023/07/04 08:38:21;;;;;;;4.53;1.93;;;21.30;97.20;;;;;;5027359;28;20423;-69
2023/07/04 08:40:47;;;;;;;5.07;2.03;;;21.20;96.00;;;;;;5031735;28;20413;-69
2023/07/04 08:43:13;;;;;;;3.13;1.50;;;21.40;95.70;;;;;;5028631;28;20635;-68
2023/07/04 08:45:40;;;;;;;3.70;2.00;;;21.80;95.60;;;;;;5031106;28;20210;-69
2023/07/04 08:48:06;;;;;;;3.37;1.57;;;22.00;95.30;;;;;;5020500;28;20451;-69
2023/07/04 08:50:36;;;;;;;5.80;1.83;;;22.20;94.90;;;;;;5022265;28;20480;-69
2023/07/04 08:53:02;;;;;;;5.10;2.17;;;22.20;94.40;;;;;;5025693;28;20535;-69
2023/07/04 08:55:31;;;;;;;1.83;1.13;;;22.40;94.70;;;;;;5030308;28;21108;-69
2023/07/04 08:57:59;;;;;;;2.90;1.70;;;22.40;95.00;;;;;;5030264;28;20178;-69
2023/07/04 09:00:35;;;;;;;2.43;1.37;;;22.60;93.30;;;;;;5028578;28;20424;-68
2023/07/04 09:03:22;;;;;;;2.50;1.33;;;22.60;93.20;;;;;;5030767;28;20440;-68
2023/07/04 09:06:00;;;;;;;3.83;1.50;;;22.50;93.50;;;;;;5028874;28;20424;-68
2023/07/04 09:08:45;;;;;;;5.90;2.10;;;22.40;93.20;;;;;;5019133;28;20428;-68
2023/07/04 09:11:13;;;;;;;3.83;1.40;;;22.60;93.40;;;;;;5024467;28;20460;-69
2023/07/04 09:13:43;;;;;;;5.00;1.97;;;22.70;94.00;;;;;;5017276;28;20798;-69
2023/07/04 09:16:29;;;;;;;3.90;1.90;;;23.10;92.70;;;;;;5017781;28;20503;-68
2023/07/04 09:19:01;;;;;;;4.60;2.10;;;23.30;92.00;;;;;;5018240;28;20420;-69
2023/07/04 09:21:29;;;;;;;5.30;2.00;;;23.50;91.00;;;;;;5030810;28;20928;-68
2023/07/04 09:24:01;;;;;;;6.33;2.57;;;23.70;91.60;;;;;;5014194;28;20779;-69
2023/07/04 09:26:38;;;;;;;4.07;1.90;;;24.00;90.90;;;;;;5008899;28;20428;-69
2023/07/04 09:29:06;;;;;;;5.37;2.30;;;23.90;90.60;;;;;;5014631;28;20450;-69
2023/07/04 09:31:36;;;;;;;5.60;2.13;;;24.20;90.10;;;;;;5010587;28;20198;-69
2023/07/04 09:34:07;;;;;;;6.90;2.27;;;24.20;88.80;;;;;;5014427;28;20538;-68
2023/07/04 09:36:37;;;;;;;5.17;2.33;;;23.90;85.20;;;;;;5023755;28;20428;-69
2023/07/04 09:39:04;;;;;;;5.73;2.37;;;23.80;87.40;;;;;;5031072;28;20436;-69
2023/07/04 09:41:32;;;;;;;4.67;2.67;;;23.50;87.40;;;;;;5029381;28;20440;-69
2023/07/04 09:44:28;;;;;;;2.93;1.60;;;23.60;89.20;;;;;;5020643;28;20420;-69
2023/07/04 09:46:54;;;;;;;7.90;2.63;;;23.80;88.60;;;;;;5031310;28;20438;-69
2023/07/04 09:49:30;;;;;;;3.07;1.83;;;23.40;90.50;;;;;;5031948;28;20424;-69
2023/07/04 09:52:09;;;;;;;5.47;1.97;;;23.20;91.50;;;;;;5006101;28;20455;-69
2023/07/04 09:54:37;;;;;;;4.33;1.60;;;23.30;91.50;;;;;;5031720;28;20420;-69
2023/07/04 09:57:16;;;;;;;3.83;1.70;;;23.60;91.40;;;;;;5031512;28;20758;-69
2023/07/04 09:59:42;;;;;;;4.33;2.17;;;23.60;90.70;;;;;;5031141;28;20508;-69
2023/07/04 10:02:18;;;;;;;5.43;1.80;;;23.70;90.20;;;;;;5030260;28;20420;-69
2023/07/04 10:04:46;;;;;;;9.80;1.97;;;24.20;90.30;;;;;;5017991;28;20174;-69
2023/07/04 10:07:14;;;;;;;4.55;1.80;;;24.80;89.50;;;;;;5017577;28;20655;-70
2023/07/04 10:09:52;;;;;;;5.13;2.75;;;25.90;83.30;;;;;;5018100;28;20209;-69
2023/07/04 10:12:18;;;;;;;9.82;2.63;;;25.60;80.80;;;;;;5030511;28;20212;-69
2023/07/04 10:14:50;;;;;;;5.00;1.70;;;25.50;78.10;;;;;;5022861;28;20269;-69
2023/07/04 10:17:15;;;;;;;3.50;1.73;;;25.70;77.30;;;;;;5029444;28;20173;-69
2023/07/04 10:19:44;;;;;;;8.88;2.75;;;25.90;78.30;;;;;;5020213;28;20193;-69
2023/07/04 10:22:10;;;;;;;3.70;1.67;;;25.90;76.00;;;;;;5030142;28;20687;-69
2023/07/04 10:24:36;;;;;;;7.10;1.92;;;26.00;77.00;;;;;;5031147;28;20239;-69
2023/07/04 10:27:12;;;;;;;3.40;1.80;;;26.20;77.40;;;;;;5031012;28;20573;-69
2023/07/04 10:29:55;;;;;;;4.30;2.53;;;25.90;76.50;;;;;;5030299;28;20638;-68
2023/07/04 10:32:22;;;;;;;2.43;1.43;;;25.60;76.90;;;;;;5015354;28;20678;-69
2023/07/04 10:34:49;;;;;;;5.97;2.10;;;25.20;76.20;;;;;;5024028;28;20182;-68
2023/07/04 10:37:32;;;;;;;6.10;2.03;;;25.10;76.30;;;;;;5023840;28;20177;-68
2023/07/04 10:40:02;;;;;;;3.40;2.00;;;25.10;79.50;;;;;;5030829;28;20484;-68
2023/07/04 10:42:31;;;;;;;3.87;2.10;;;25.00;77.70;;;;;;5030541;28;20778;-68
2023/07/04 10:44:57;;;;;;;4.97;2.13;;;25.00;77.80;;;;;;5027094;28;20920;-68
2023/07/04 10:47:27;;;;;;;4.33;1.80;;;25.00;75.00;;;;;;5030482;28;20919;-67
2023/07/04 10:49:59;;;;;;;5.00;2.03;;;25.10;74.50;;;;;;5026671;28;20421;-68
2023/07/04 10:52:33;;;;;;;4.73;1.50;;;25.30;74.50;;;;;;5021388;28;20452;-68
2023/07/04 10:55:00;;;;;;;4.60;1.87;;;25.30;74.00;;;;;;5030602;28;20416;-67
2023/07/04 10:57:42;;;;;;;2.90;1.80;;;25.00;74.40;;;;;;5030677;28;20897;-68
2023/07/04 11:00:14;;;;;;;3.10;1.70;;;24.80;74.70;;;;;;5030778;28;20411;-68
2023/07/04 11:02:53;;;;;;;5.00;2.17;;;25.00;77.40;;;;;;5028317;28;20550;-68
2023/07/04 11:05:37;;;;;;;4.30;1.83;;;24.90;77.50;;;;;;5021756;28;20446;-68
2023/07/04 11:08:07;;;;;;;4.57;1.93;;;24.80;77.40;;;;;;5012895;28;20431;-68
2023/07/04 11:10:40;;;;;;;5.90;2.67;;;24.90;78.90;;;;;;5018826;28;20469;-64
2023/07/04 11:13:06;;;;;;;3.60;1.83;;;24.90;78.70;;;;;;5027739;28;20962;-68
2023/07/04 11:15:36;;;;;;;5.03;1.80;;;25.50;77.80;;;;;;5025294;28;20424;-69
2023/07/04 11:18:02;;;;;;;3.80;1.10;;;25.50;73.50;;;;;;5023055;28;20222;-69
2023/07/04 11:20:40;;;;;;;5.43;2.77;;;25.30;74.40;;;;;;5013036;28;20428;-69
2023/07/04 11:23:14;;;;;;;3.33;1.57;;;25.70;72.90;;;;;;5030228;28;20642;-69
2023/07/04 11:25:45;;;;;;;3.33;1.57;;;25.80;69.70;;;;;;5030379;28;20897;-69
2023/07/04 11:28:32;;;;;;;6.73;1.87;;;26.10;70.40;;;;;;5031255;28;20479;-69
2023/07/04 11:31:18;;;;;;;3.10;1.80;;;26.10;67.90;;;;;;5006306;28;20417;-69
2023/07/04 11:34:02;;;;;;;4.67;2.07;;;26.30;66.60;;;;;;5015907;28;20439;-69
2023/07/04 11:36:40;;;;;;;3.30;2.00;;;26.00;66.40;;;;;;5026997;28;20436;-69
2023/07/04 11:39:21;;;;;;;7.17;1.80;;;26.00;70.10;;;;;;5034150;28;20423;-69
2023/07/04 11:41:48;;;;;;;3.70;1.97;;;25.90;69.30;;;;;;5033200;28;20424;-68
2023/07/04 11:44:28;;;;;;;2.53;1.40;;;25.90;68.20;;;;;;5031432;28;20471;-69
2023/07/04 11:47:00;;;;;;;3.00;1.50;;;25.80;67.70;;;;;;5033129;28;20434;-68
2023/07/04 11:49:27;;;;;;;3.20;1.43;;;25.50;68.10;;;;;;5034062;28;20444;-68
2023/07/04 11:52:04;;;;;;;6.37;2.60;;;25.70;68.80;;;;;;5026108;28;20453;-69
2023/07/04 11:54:30;;;;;;;2.97;1.53;;;26.10;68.20;;;;;;5013697;28;20460;-70
2023/07/04 11:56:56;;;;;;;3.20;1.60;;;26.30;67.00;;;;;;5022153;28;20413;-71
2023/07/04 11:59:26;;;;;;;3.57;1.63;;;26.30;64.80;;;;;;5029274;28;20733;-71
2023/07/04 12:01:52;;;;;;;4.00;1.77;;;26.10;62.50;;;;;;5033698;28;20505;-70
2023/07/04 12:04:23;;;;;;;2.60;1.57;;;26.20;61.90;;;;;;5019898;28;21028;-71
2023/07/04 12:07:07;;;;;;;3.80;1.90;;;26.20;64.50;;;;;;5024022;28;20269;-71
2023/07/04 12:09:55;;;;;;;3.23;1.47;;;26.20;65.20;;;;;;5030809;28;20421;-70
2023/07/04 12:12:28;;;;;;;5.57;1.83;;;26.00;63.40;;;;;;5016598;28;20474;-70
2023/07/04 12:15:13;;;;;;;2.87;1.40;;;26.30;65.00;;;;;;5034127;28;20420;-70
2023/07/04 12:17:41;;;;;;;3.70;1.33;;;26.60;65.50;;;;;;5033375;28;20416;-71
2023/07/04 12:20:14;;;;;;;3.10;1.70;;;26.90;63.90;;;;;;5021305;28;20266;-71
2023/07/04 12:22:54;;;;;;;3.97;2.00;;;26.70;63.70;;;;;;5021021;28;20448;-71
2023/07/04 12:25:26;;;;;;;7.80;1.60;;;26.10;65.90;;;;;;5034227;28;20416;-71
2023/07/04 12:27:56;;;;;;;5.50;2.03;;;25.60;67.30;;;;;;5034244;28;20952;-71
2023/07/04 12:30:22;;;;;;;6.90;1.30;;;25.10;69.00;;;;;;5017069;28;20460;-71
2023/07/04 12:32:54;;;;;;;3.60;1.90;;;24.80;71.60;;;;;;5013267;28;20485;-71
2023/07/04 12:35:31;;;;;;;4.07;1.27;;;24.80;70.60;;;;;;5018474;28;20185;-71
2023/07/04 12:37:58;;;;;;;3.17;1.10;;;24.80;68.70;;;;;;5034060;28;20427;-71
2023/07/04 12:40:29;;;;;;;8.43;2.30;;;25.00;69.10;;;;;;5033918;28;20508;-71
2023/07/04 12:43:03;;;;;;;2.13;1.00;;;25.40;66.60;;;;;;5032831;28;20499;-70
2023/07/04 12:45:29;;;;;;;9.77;1.77;;;25.60;64.30;;;;;;5021816;28;20425;-71
2023/07/04 12:48:01;;;;;;;5.73;2.10;;;25.50;65.20;;;;;;5032284;28;20425;-71
2023/07/04 12:50:29;;;;;;;2.13;1.00;;;25.40;66.00;;;;;;5022017;28;20416;-71
2023/07/04 12:52:55;;;;;;;2.80;1.40;;;25.30;67.90;;;;;;5032978;28;20457;-71
2023/07/04 12:55:27;;;;;;;3.33;1.23;;;25.40;67.00;;;;;;5031970;28;21095;-71